Time;durP1;ratioP1;P1;durP2;ratioP2;P2;SDS_P1;SDS_P2;PMS_P1;PMS_P2;Temp;Humidity;BMP_temperature;BMP_pressure;BME280_temperature;BME280_humidity;BME280_pressure;Samples;Min_cycle;Max_cycle;Signal;HPM_P1;HPM_P2
2022/11/28 00:01:34;;;;;;;59.85;12.27;;;6.50;99.90;;;;;;5018328;28;20046;-62
2022/11/28 00:04:03;;;;;;;66.90;12.18;;;6.50;99.90;;;;;;5036659;28;20048;-63
2022/11/28 00:06:31;;;;;;;69.32;12.13;;;6.50;99.90;;;;;;5030482;28;20049;-69
2022/11/28 00:09:00;;;;;;;60.78;12.32;;;6.50;99.90;;;;;;5020754;28;20041;-67
2022/11/28 00:11:27;;;;;;;92.18;12.02;;;6.50;99.90;;;;;;5035875;28;20056;-64
2022/11/28 00:13:55;;;;;;;56.05;11.80;;;6.50;99.90;;;;;;5034061;28;20041;-66
2022/11/28 00:16:23;;;;;;;65.03;11.02;;;6.50;99.90;;;;;;5028488;28;20049;-63
2022/11/28 00:18:52;;;;;;;51.60;10.98;;;6.50;99.90;;;;;;5018830;28;20046;-63
2022/11/28 00:21:21;;;;;;;75.25;11.77;;;6.40;99.90;;;;;;5009597;28;20492;-63
2022/11/28 00:23:50;;;;;;;64.97;12.13;;;6.40;99.90;;;;;;5021181;28;20056;-68
2022/11/28 00:26:38;;;;;;;75.53;13.27;;;6.40;99.90;;;;;;5029090;28;20057;-69
2022/11/28 00:29:07;;;;;;;64.18;11.25;;;6.30;99.90;;;;;;5024759;28;20045;-67
2022/11/28 00:31:41;;;;;;;53.88;10.77;;;6.20;99.90;;;;;;5027099;28;20054;-63
2022/11/28 00:34:11;;;;;;;68.88;11.80;;;6.30;99.90;;;;;;5026013;28;20052;-63
2022/11/28 00:36:39;;;;;;;84.47;11.73;;;6.20;99.90;;;;;;5011931;28;20042;-89
2022/11/28 00:39:07;;;;;;;47.97;10.57;;;6.20;99.90;;;;;;5008994;28;20060;-84
2022/11/28 00:41:34;;;;;;;57.70;10.02;;;6.20;99.90;;;;;;5023444;28;20048;-84
2022/11/28 00:44:02;;;;;;;55.55;10.73;;;6.10;99.90;;;;;;5024417;28;20056;-89
2022/11/28 00:46:30;;;;;;;58.55;9.35;;;6.10;99.90;;;;;;5011328;28;20068;-91
2022/11/28 00:48:58;;;;;;;50.80;9.95;;;6.00;99.90;;;;;;5017770;28;20054;-71
2022/11/28 00:51:29;;;;;;;59.97;9.10;;;6.00;99.90;;;;;;5013782;28;20053;-87
2022/11/28 00:53:59;;;;;;;58.95;10.40;;;6.00;99.90;;;;;;5014980;28;20060;-87
2022/11/28 00:56:33;;;;;;;53.20;9.45;;;6.00;99.90;;;;;;5025947;28;20037;-91
2022/11/28 00:59:01;;;;;;;70.68;11.02;;;5.90;99.90;;;;;;5022827;28;20042;-88
2022/11/28 01:01:35;;;;;;;52.88;11.70;;;5.90;99.90;;;;;;5018641;28;20500;-66
2022/11/28 01:04:06;;;;;;;67.72;13.70;;;6.00;99.90;;;;;;5030021;28;20052;-92
2022/11/28 01:06:37;;;;;;;69.55;14.77;;;6.00;99.90;;;;;;5009925;28;20049;-71
2022/11/28 01:09:20;;;;;;;53.60;12.50;;;6.00;99.90;;;;;;5013252;28;20497;-67
2022/11/28 01:11:50;;;;;;;74.72;12.52;;;6.10;99.90;;;;;;5026168;28;20068;-63
2022/11/28 01:14:20;;;;;;;61.95;11.88;;;6.20;99.90;;;;;;5029749;28;20059;-63
2022/11/28 01:16:48;;;;;;;76.30;13.30;;;6.20;99.90;;;;;;5041186;28;20520;-63
2022/11/28 01:19:16;;;;;;;66.53;10.80;;;;;;;;;;5015829;28;20046;-62
2022/11/28 01:21:44;;;;;;;85.32;11.65;;;6.20;99.90;;;;;;5029265;28;20516;-62
2022/11/28 01:24:12;;;;;;;77.65;11.38;;;6.30;99.90;;;;;;5036724;28;20111;-62
2022/11/28 01:26:41;;;;;;;80.20;11.23;;;6.30;99.90;;;;;;5037000;28;20052;-63
2022/11/28 01:29:09;;;;;;;43.80;9.95;;;6.30;99.90;;;;;;5023048;28;20133;-63
2022/11/28 01:31:36;;;;;;;80.60;11.20;;;6.30;99.90;;;;;;5011752;28;20046;-63
2022/11/28 01:34:04;;;;;;;62.25;11.02;;;6.30;99.90;;;;;;5047008;28;20056;-62
2022/11/28 01:36:32;;;;;;;57.78;10.70;;;6.30;99.90;;;;;;5020945;28;20533;-62
2022/11/28 01:38:59;;;;;;;48.60;9.15;;;6.30;99.90;;;;;;5018246;28;20069;-82
2022/11/28 01:41:27;;;;;;;63.45;11.13;;;6.40;99.90;;;;;;5013246;28;20049;-62
2022/11/28 01:44:02;;;;;;;56.10;10.38;;;6.40;99.90;;;;;;5034134;28;20052;-62
2022/11/28 01:46:30;;;;;;;54.13;10.18;;;6.40;99.90;;;;;;5045640;28;20526;-63
2022/11/28 01:49:02;;;;;;;63.10;11.07;;;6.40;99.90;;;;;;5020049;28;20505;-63
2022/11/28 01:51:31;;;;;;;58.90;12.25;;;6.40;99.90;;;;;;5027818;28;20056;-62
2022/11/28 01:53:59;;;;;;;47.97;9.15;;;6.50;99.90;;;;;;5033124;28;20052;-65
2022/11/28 01:56:33;;;;;;;45.20;9.18;;;6.50;99.90;;;;;;5019690;28;20057;-68
2022/11/28 01:59:05;;;;;;;41.40;8.25;;;6.50;99.90;;;;;;5018512;28;20056;-79
2022/11/28 02:01:33;;;;;;;42.42;9.57;;;6.50;99.90;;;;;;5022111;28;20049;-70
2022/11/28 02:04:03;;;;;;;40.63;9.07;;;6.40;99.90;;;;;;5013666;28;20049;-69
2022/11/28 02:06:31;;;;;;;31.65;8.80;;;6.50;99.90;;;;;;5033035;28;20041;-94
2022/11/28 02:08:58;;;;;;;32.63;9.05;;;6.50;99.90;;;;;;5016649;28;20054;-70
2022/11/28 02:11:45;;;;;;;33.50;8.85;;;6.50;99.90;;;;;;5003813;28;20053;-71
2022/11/28 02:14:40;;;;;;;45.42;8.60;;;6.50;99.90;;;;;;5047005;28;20037;-65
2022/11/28 02:17:45;;;;;;;57.55;10.38;;;6.50;99.90;;;;;;5029384;28;20824;-65
2022/11/28 02:20:34;;;;;;;40.60;10.05;;;6.50;99.90;;;;;;5024236;28;20045;-65
2022/11/28 02:23:14;;;;;;;50.17;8.47;;;6.50;99.90;;;;;;5010053;28;20057;-65
2022/11/28 02:26:02;;;;;;;48.75;9.07;;;6.50;99.90;;;;;;5023793;28;20530;-65
2022/11/28 02:29:02;;;;;;;38.97;8.60;;;6.50;99.90;;;;;;5021550;28;20480;-71
2022/11/28 02:32:01;;;;;;;36.15;8.75;;;6.50;99.90;;;;;;5012330;28;20785;-65
2022/11/28 02:34:44;;;;;;;43.67;9.15;;;6.50;99.90;;;;;;5020808;28;20045;-65
2022/11/28 02:37:18;;;;;;;38.30;9.70;;;6.50;99.90;;;;;;5023601;28;20070;-64
2022/11/28 02:39:59;;;;;;;42.10;9.45;;;6.50;99.90;;;;;;5019018;28;20041;-64
2022/11/28 02:42:50;;;;;;;42.78;8.98;;;6.50;99.90;;;;;;5009105;28;20046;-64
2022/11/28 02:45:40;;;;;;;41.28;8.93;;;6.40;99.90;;;;;;5005902;28;20038;-63
2022/11/28 02:48:36;;;;;;;28.15;9.32;;;6.40;99.90;;;;;;5015148;28;20064;-63
2022/11/28 02:51:25;;;;;;;31.20;9.50;;;6.30;99.90;;;;;;5013019;28;20058;-64
2022/11/28 02:53:54;;;;;;;33.63;8.10;;;6.30;99.90;;;;;;5023517;28;20049;-63
2022/11/28 02:56:23;;;;;;;34.10;8.35;;;6.30;99.90;;;;;;5021313;28;20049;-66
2022/11/28 02:58:51;;;;;;;38.95;9.90;;;6.20;99.90;;;;;;5020841;28;20041;-64
2022/11/28 03:01:24;;;;;;;29.02;7.90;;;6.20;99.90;;;;;;5026940;28;20052;-69
2022/11/28 03:04:15;;;;;;;42.40;7.65;;;6.20;99.90;;;;;;5031448;28;20045;-70
2022/11/28 03:07:21;;;;;;;37.53;7.93;;;6.10;99.90;;;;;;5028784;28;20045;-64
2022/11/28 03:10:11;;;;;;;28.58;7.78;;;6.10;99.90;;;;;;5020901;28;20046;-64
2022/11/28 03:12:52;;;;;;;28.80;7.88;;;6.10;99.90;;;;;;5022497;28;20045;-64
2022/11/28 03:15:26;;;;;;;35.47;8.13;;;6.10;99.90;;;;;;5019697;28;20042;-67
2022/11/28 03:18:18;;;;;;;36.88;8.13;;;6.10;99.90;;;;;;5031203;28;20061;-64
2022/11/28 03:20:55;;;;;;;34.35;6.93;;;6.10;99.90;;;;;;5012857;28;20041;-76
2022/11/28 03:23:35;;;;;;;28.85;7.20;;;6.10;99.90;;;;;;5010658;28;20057;-82
2022/11/28 03:26:17;;;;;;;30.58;7.53;;;6.10;99.90;;;;;;5027815;28;20041;-86
2022/11/28 03:28:54;;;;;;;29.42;7.35;;;6.10;99.90;;;;;;5031101;28;20109;-84
2022/11/28 03:31:28;;;;;;;37.08;7.90;;;6.00;99.90;;;;;;5026826;28;20042;-92
2022/11/28 03:33:58;;;;;;;31.67;8.20;;;6.00;99.90;;;;;;5043309;28;20046;-88
2022/11/28 03:36:34;;;;;;;32.00;7.50;;;6.00;99.90;;;;;;5031695;28;20608;-92
2022/11/28 03:39:07;;;;;;;38.08;8.23;;;5.90;99.90;;;;;;5032433;28;20045;-83
2022/11/28 03:41:40;;;;;;;48.30;9.25;;;5.90;99.90;;;;;;5027937;28;20432;-93
2022/11/28 03:44:13;;;;;;;47.70;9.27;;;5.90;99.90;;;;;;5024585;28;20050;-89
2022/11/28 03:46:46;;;;;;;40.85;10.07;;;5.90;99.90;;;;;;5031739;28;20489;-84
2022/11/28 03:49:26;;;;;;;35.85;10.52;;;5.90;99.90;;;;;;5030809;28;20041;-64
2022/11/28 03:52:00;;;;;;;;;;;6.00;99.90;;;;;;5028934;28;20374;-66
2022/11/28 03:54:46;;;;;;;42.42;9.45;;;6.00;99.90;;;;;;5014172;28;19928;-63
2022/11/28 03:57:20;;;;;;;47.03;9.25;;;6.10;99.90;;;;;;5027503;28;20046;-63
2022/11/28 03:59:52;;;;;;;41.83;9.73;;;6.10;99.90;;;;;;5028177;28;20042;-64
2022/11/28 04:02:33;;;;;;;44.83;10.05;;;6.10;99.90;;;;;;5033719;28;20056;-65
2022/11/28 04:05:18;;;;;;;49.08;10.88;;;6.20;99.90;;;;;;5027422;28;20046;-64
2022/11/28 04:07:58;;;;;;;41.05;8.55;;;6.20;99.90;;;;;;5020564;28;20069;-65
2022/11/28 04:10:41;;;;;;;30.45;7.25;;;6.20;99.90;;;;;;5023556;28;20061;-64
2022/11/28 04:13:17;;;;;;;41.90;9.00;;;6.30;99.90;;;;;;5027378;28;20045;-63
2022/11/28 04:16:06;;;;;;;44.30;8.70;;;6.30;99.90;;;;;;5022672;28;20057;-69
2022/11/28 04:18:49;;;;;;;36.97;9.05;;;6.40;99.90;;;;;;5026661;28;20394;-64
2022/11/28 04:21:32;;;;;;;37.22;8.45;;;6.40;99.90;;;;;;5017833;28;20037;-64
2022/11/28 04:24:14;;;;;;;40.83;7.95;;;6.40;99.90;;;;;;5027976;28;20053;-64
2022/11/28 04:26:46;;;;;;;42.65;9.07;;;6.50;99.90;;;;;;5025141;28;20083;-64
2022/11/28 04:29:17;;;;;;;40.35;7.28;;;6.50;99.90;;;;;;5031542;28;20045;-64
2022/11/28 04:31:47;;;;;;;31.60;7.35;;;6.50;99.90;;;;;;5027904;28;20061;-73
2022/11/28 04:34:19;;;;;;;36.78;7.63;;;6.50;99.90;;;;;;5031461;28;20049;-66
2022/11/28 04:36:48;;;;;;;25.80;8.52;;;6.50;99.90;;;;;;5026049;28;20038;-68
2022/11/28 04:39:22;;;;;;;35.42;7.50;;;6.50;99.90;;;;;;5050452;28;20049;-87
2022/11/28 04:41:57;;;;;;;31.13;6.72;;;6.50;99.90;;;;;;5024607;28;20053;-79
2022/11/28 04:44:32;;;;;;;33.17;8.10;;;6.50;99.90;;;;;;5029765;28;20393;-72
2022/11/28 04:47:00;;;;;;;34.67;7.43;;;6.50;99.90;;;;;;5030081;28;20048;-88
2022/11/28 04:49:29;;;;;;;36.35;7.47;;;6.50;99.90;;;;;;5028987;28;20054;-79
2022/11/28 04:52:15;;;;;;;44.67;6.73;;;6.50;99.90;;;;;;5016864;28;20520;-89
2022/11/28 04:54:56;;;;;;;32.72;7.00;;;6.50;99.90;;;;;;5030932;28;20045;-94
2022/11/28 04:57:36;;;;;;;44.15;8.70;;;6.50;99.90;;;;;;5030813;28;20053;-92
2022/11/28 05:00:13;;;;;;;42.40;10.13;;;6.50;99.90;;;;;;5027931;28;20234;-93
2022/11/28 05:02:43;;;;;;;39.33;7.93;;;6.50;99.90;;;;;;5028291;28;20500;-90
2022/11/28 05:05:16;;;;;;;35.80;8.55;;;6.50;99.90;;;;;;5037451;28;20049;-85
2022/11/28 05:07:44;;;;;;;30.63;8.27;;;6.40;99.90;;;;;;5023467;28;20049;-91
2022/11/28 05:10:13;;;;;;;45.72;8.85;;;6.40;99.90;;;;;;5013353;28;20060;-91
2022/11/28 05:12:41;;;;;;;42.38;8.23;;;6.30;99.90;;;;;;5029859;28;20477;-71
2022/11/28 05:15:10;;;;;;;36.80;8.20;;;6.30;99.90;;;;;;5024898;28;20049;-73
2022/11/28 05:17:37;;;;;;;33.67;7.18;;;6.30;99.90;;;;;;5011759;28;20069;-75
2022/11/28 05:20:09;;;;;;;38.33;7.45;;;6.20;99.90;;;;;;5017310;28;20041;-68
2022/11/28 05:22:36;;;;;;;34.72;6.47;;;6.20;99.90;;;;;;5030134;28;20421;-67
2022/11/28 05:25:04;;;;;;;34.20;7.28;;;6.10;99.90;;;;;;5030342;28;20064;-73
2022/11/28 05:27:32;;;;;;;54.42;8.65;;;6.10;99.90;;;;;;5029965;28;20048;-77
2022/11/28 05:29:59;;;;;;;46.83;8.15;;;6.00;99.90;;;;;;5028111;28;20046;-71
2022/11/28 05:32:30;;;;;;;37.80;6.13;;;6.00;99.90;;;;;;5037282;28;20044;-70
2022/11/28 05:34:58;;;;;;;40.83;7.40;;;5.90;99.90;;;;;;5013179;28;20050;-64
2022/11/28 05:37:25;;;;;;;42.15;7.18;;;5.90;99.90;;;;;;5012386;28;20049;-66
2022/11/28 05:39:53;;;;;;;35.53;7.05;;;5.90;99.90;;;;;;5013924;28;20045;-68
2022/11/28 05:42:21;;;;;;;35.97;7.28;;;5.80;99.90;;;;;;5030716;28;20497;-64
2022/11/28 05:44:49;;;;;;;38.38;7.88;;;5.80;99.90;;;;;;5030652;28;20512;-65
2022/11/28 05:47:17;;;;;;;41.83;7.90;;;;;;;;;;5026034;28;20517;-81
2022/11/28 05:49:46;;;;;;;34.47;8.63;;;5.80;99.90;;;;;;5016440;28;20046;-81
2022/11/28 05:52:13;;;;;;;45.80;9.20;;;5.80;99.90;;;;;;5027976;28;20041;-64
2022/11/28 05:54:41;;;;;;;43.72;8.18;;;5.90;99.90;;;;;;5026990;28;20378;-64
2022/11/28 05:57:08;;;;;;;40.30;8.73;;;6.00;99.90;;;;;;5018468;28;20057;-64
2022/11/28 05:59:36;;;;;;;43.60;8.98;;;;;;;;;;5025279;28;20065;-72
2022/11/28 06:02:04;;;;;;;36.13;7.72;;;6.00;99.90;;;;;;5013712;28;20393;-64
2022/11/28 06:04:35;;;;;;;38.78;8.73;;;6.10;99.90;;;;;;5009982;28;20752;-69
2022/11/28 06:07:03;;;;;;;40.65;8.43;;;6.10;99.90;;;;;;5008439;28;20350;-64
2022/11/28 06:09:30;;;;;;;44.40;7.95;;;6.20;99.90;;;;;;5018557;28;20046;-64
2022/11/28 06:11:58;;;;;;;45.00;8.15;;;6.20;99.90;;;;;;5021540;28;20075;-74
2022/11/28 06:14:26;;;;;;;25.40;9.25;;;6.30;99.90;;;;;;5025255;28;20060;-65
2022/11/28 06:16:53;;;;;;;35.90;8.30;;;6.30;99.90;;;;;;5021878;28;20049;-71
2022/11/28 06:19:21;;;;;;;40.20;9.25;;;6.30;99.90;;;;;;5017620;28;20049;-68
2022/11/28 06:21:49;;;;;;;40.25;9.07;;;6.30;99.90;;;;;;5020628;28;20503;-65
2022/11/28 06:24:17;;;;;;;49.08;8.65;;;6.40;99.90;;;;;;5018297;28;20045;-69
2022/11/28 06:26:45;;;;;;;36.03;8.40;;;6.40;99.90;;;;;;5012820;28;20439;-67
2022/11/28 06:29:13;;;;;;;41.17;9.07;;;;;;;;;;5027829;28;20057;-75
2022/11/28 06:31:40;;;;;;;35.22;7.68;;;6.40;99.90;;;;;;5030769;28;20056;-72
2022/11/28 06:34:11;;;;;;;45.15;9.23;;;6.50;99.90;;;;;;5028208;28;20045;-70
2022/11/28 06:36:39;;;;;;;27.15;9.10;;;6.50;99.90;;;;;;5040920;28;20061;-65
2022/11/28 06:39:12;;;;;;;42.17;8.73;;;6.50;99.90;;;;;;5021661;28;20041;-64
2022/11/28 06:41:40;;;;;;;38.35;8.48;;;6.50;99.90;;;;;;5009611;28;20050;-69
2022/11/28 06:44:12;;;;;;;41.85;9.23;;;6.50;99.90;;;;;;5027932;28;20045;-64
2022/11/28 06:46:41;;;;;;;43.20;8.65;;;6.50;99.90;;;;;;5027361;28;20045;-64
2022/11/28 06:49:12;;;;;;;35.90;8.95;;;6.60;99.90;;;;;;5012394;28;20083;-64
2022/11/28 06:51:41;;;;;;;32.88;8.82;;;6.50;99.90;;;;;;5025412;28;20049;-65
2022/11/28 06:54:09;;;;;;;28.33;7.82;;;6.60;99.90;;;;;;5046194;28;20056;-64
2022/11/28 06:56:38;;;;;;;39.25;9.15;;;6.60;99.90;;;;;;5043639;28;20056;-64
2022/11/28 06:59:06;;;;;;;38.88;9.93;;;6.60;99.90;;;;;;5000151;28;20058;-64
2022/11/28 07:01:34;;;;;;;45.33;9.50;;;6.60;99.90;;;;;;5023799;28;20433;-69
2022/11/28 07:04:02;;;;;;;39.15;9.38;;;6.60;99.90;;;;;;5025207;28;21074;-64
2022/11/28 07:06:29;;;;;;;36.65;10.68;;;6.50;99.90;;;;;;5013466;28;20053;-65
2022/11/28 07:08:58;;;;;;;45.58;9.98;;;6.60;99.90;;;;;;5018512;28;20052;-69
2022/11/28 07:11:28;;;;;;;49.83;9.48;;;6.60;99.90;;;;;;5013030;28;20052;-68
2022/11/28 07:13:57;;;;;;;43.05;10.02;;;6.60;99.90;;;;;;5020673;28;20052;-69
2022/11/28 07:16:27;;;;;;;44.28;11.07;;;6.60;99.90;;;;;;5022618;28;20485;-64
2022/11/28 07:18:56;;;;;;;39.30;10.07;;;6.60;99.90;;;;;;5027152;28;20493;-64
2022/11/28 07:21:25;;;;;;;47.80;11.10;;;6.60;99.90;;;;;;5017203;28;20489;-64
2022/11/28 07:23:53;;;;;;;35.17;10.07;;;;;;;;;;5018319;28;20049;-75
2022/11/28 07:26:21;;;;;;;40.63;9.63;;;6.60;99.90;;;;;;5022748;28;20045;-65
2022/11/28 07:28:50;;;;;;;37.17;9.07;;;6.70;99.90;;;;;;5019147;28;20045;-79
2022/11/28 07:31:20;;;;;;;33.95;9.55;;;6.60;99.90;;;;;;5019927;28;20064;-65
2022/11/28 07:33:49;;;;;;;39.83;10.35;;;6.60;99.90;;;;;;5020631;28;20038;-73
2022/11/28 07:36:23;;;;;;;53.45;10.65;;;6.60;99.90;;;;;;5018933;28;20057;-64
2022/11/28 07:38:57;;;;;;;37.75;10.13;;;6.60;99.90;;;;;;5021597;28;20068;-65
2022/11/28 07:41:26;;;;;;;27.45;8.93;;;6.60;99.90;;;;;;5017684;28;20046;-65
2022/11/28 07:43:58;;;;;;;35.33;8.15;;;6.60;99.90;;;;;;5015108;28;20494;-70
2022/11/28 07:46:28;;;;;;;28.80;8.55;;;6.60;99.90;;;;;;5039590;28;20045;-68
2022/11/28 07:48:56;;;;;;;31.27;8.52;;;6.50;99.90;;;;;;5021247;28;20048;-75
2022/11/28 07:51:28;;;;;;;31.15;7.60;;;6.50;99.90;;;;;;5027688;28;20056;-79
2022/11/28 07:53:56;;;;;;;46.60;8.52;;;6.50;99.90;;;;;;5016176;28;20757;-78
2022/11/28 07:56:27;;;;;;;34.28;8.75;;;6.50;99.90;;;;;;5017321;28;20509;-65
2022/11/28 07:59:15;;;;;;;34.55;7.82;;;6.50;99.90;;;;;;5024146;28;20034;-69
2022/11/28 08:01:43;;;;;;;37.92;7.97;;;6.50;99.90;;;;;;5019577;28;20048;-87
2022/11/28 08:04:10;;;;;;;33.47;7.35;;;6.50;99.90;;;;;;5022032;28;20129;-81
2022/11/28 08:06:40;;;;;;;31.17;7.82;;;6.50;99.90;;;;;;5013653;28;20045;-74
2022/11/28 08:09:08;;;;;;;38.95;9.02;;;6.50;99.90;;;;;;5013011;28;20045;-65
2022/11/28 08:11:36;;;;;;;28.35;7.85;;;6.40;99.90;;;;;;5021228;28;20052;-64
2022/11/28 08:14:05;;;;;;;29.88;7.18;;;6.50;99.90;;;;;;5034896;28;20132;-68
2022/11/28 08:16:33;;;;;;;40.90;8.15;;;6.50;99.90;;;;;;5014040;28;20049;-65
2022/11/28 08:19:01;;;;;;;38.45;8.15;;;6.50;99.90;;;;;;5013718;28;20574;-64
2022/11/28 08:21:31;;;;;;;32.05;7.55;;;6.60;99.90;;;;;;5016828;28;20042;-75
2022/11/28 08:24:01;;;;;;;40.72;8.52;;;6.60;99.90;;;;;;5015667;28;20049;-65
2022/11/28 08:26:30;;;;;;;23.80;8.13;;;6.50;99.90;;;;;;5013473;28;20060;-64
2022/11/28 08:29:00;;;;;;;36.53;8.75;;;6.60;99.90;;;;;;5028035;28;20053;-64
2022/11/28 08:31:33;;;;;;;30.92;7.57;;;6.60;99.90;;;;;;5013807;28;20054;-65
2022/11/28 08:34:04;;;;;;;39.47;8.27;;;6.60;99.90;;;;;;5024093;28;20037;-66
2022/11/28 08:36:31;;;;;;;30.60;7.47;;;6.60;99.90;;;;;;5019777;28;20397;-66
2022/11/28 08:39:00;;;;;;;33.40;9.48;;;6.60;99.90;;;;;;5025912;28;20045;-66
2022/11/28 08:41:48;;;;;;;37.10;8.05;;;6.60;99.90;;;;;;5037354;28;20417;-74
2022/11/28 08:44:16;;;;;;;40.47;8.90;;;6.60;99.90;;;;;;5016715;28;20362;-63
2022/11/28 08:46:43;;;;;;;40.05;8.63;;;6.70;99.90;;;;;;5016099;28;20053;-66
2022/11/28 08:49:11;;;;;;;42.00;8.27;;;6.70;99.90;;;;;;5009803;28;20049;-69
2022/11/28 08:51:39;;;;;;;33.35;8.35;;;6.80;99.90;;;;;;4995598;28;20054;-63
2022/11/28 08:54:07;;;;;;;35.00;8.43;;;6.70;99.90;;;;;;5016895;28;20050;-63
2022/11/28 08:56:34;;;;;;;42.78;8.23;;;6.80;99.90;;;;;;5019511;28;20133;-63
2022/11/28 08:59:02;;;;;;;38.83;7.53;;;6.80;99.90;;;;;;5022914;28;20050;-84
2022/11/28 09:01:30;;;;;;;44.42;7.85;;;6.80;99.90;;;;;;5006957;28;20362;-80
2022/11/28 09:03:58;;;;;;;30.80;7.72;;;6.70;99.90;;;;;;5022579;28;20045;-67
2022/11/28 09:06:26;;;;;;;38.13;8.52;;;6.70;99.90;;;;;;5008925;28;20053;-74
2022/11/28 09:08:54;;;;;;;33.58;8.25;;;;;;;;;;5012174;28;20065;-68
2022/11/28 09:11:22;;;;;;;30.15;9.23;;;6.80;99.90;;;;;;5008129;28;20056;-72
2022/11/28 09:13:50;;;;;;;39.33;8.45;;;6.80;99.90;;;;;;5018411;28;20048;-78
2022/11/28 09:16:17;;;;;;;38.97;9.45;;;6.80;99.90;;;;;;5020253;28;20052;-69
2022/11/28 09:18:45;;;;;;;44.92;8.82;;;6.80;99.90;;;;;;5021310;28;20048;-62
2022/11/28 09:21:14;;;;;;;43.45;9.23;;;6.80;99.90;;;;;;5009350;28;20053;-62
2022/11/28 09:23:43;;;;;;;42.33;10.18;;;6.80;99.90;;;;;;5013198;28;20060;-63
2022/11/28 09:26:19;;;;;;;40.78;10.35;;;6.80;99.90;;;;;;5057687;28;20042;-61
2022/11/28 09:28:47;;;;;;;30.65;7.68;;;6.80;99.90;;;;;;5030128;28;20056;-63
2022/11/28 09:31:17;;;;;;;41.03;9.55;;;6.80;99.90;;;;;;5026449;28;20041;-62
2022/11/28 09:33:47;;;;;;;38.28;9.45;;;6.90;99.90;;;;;;5014713;28;20057;-62
2022/11/28 09:36:16;;;;;;;;;;;6.80;99.90;;;;;;5007394;28;20060;-67
2022/11/28 09:38:44;;;;;;;31.52;7.45;;;6.80;99.90;;;;;;5030817;28;19920;-61
2022/11/28 09:41:53;;;;;;;27.77;6.93;;;6.80;99.90;;;;;;5019462;28;20053;-61
2022/11/28 09:44:46;;;;;;;35.17;7.55;;;6.80;99.90;;;;;;5019240;28;20034;-65
2022/11/28 09:47:24;;;;;;;25.98;5.95;;;6.80;99.90;;;;;;5024653;28;20050;-65
2022/11/28 09:49:58;;;;;;;31.15;7.65;;;6.80;99.90;;;;;;5027535;28;20042;-62
2022/11/28 09:52:29;;;;;;;30.05;7.55;;;6.80;99.90;;;;;;5025587;28;20504;-63
2022/11/28 09:55:08;;;;;;;27.70;7.82;;;6.80;99.90;;;;;;5020296;28;20045;-62
2022/11/28 09:57:42;;;;;;;31.25;8.13;;;6.80;99.90;;;;;;5016013;28;20053;-62
2022/11/28 10:00:31;;;;;;;26.83;7.63;;;6.90;99.90;;;;;;5021126;28;20048;-62
2022/11/28 10:03:30;;;;;;;30.17;8.88;;;7.00;99.90;;;;;;5034889;28;20820;-62
2022/11/28 10:06:24;;;;;;;26.52;7.22;;;7.00;99.90;;;;;;5027615;28;20052;-64
2022/11/28 10:09:17;;;;;;;22.13;6.63;;;7.00;99.90;;;;;;5067440;28;20041;-66
2022/11/28 10:12:05;;;;;;;27.13;6.22;;;7.10;99.90;;;;;;5016103;28;20049;-62
2022/11/28 10:14:53;;;;;;;18.98;5.88;;;7.10;99.90;;;;;;5027381;28;20069;-67
2022/11/28 10:17:26;;;;;;;25.13;5.97;;;7.10;99.90;;;;;;5012223;28;20049;-65
2022/11/28 10:20:11;;;;;;;23.20;6.60;;;7.00;99.90;;;;;;5028162;28;20042;-66
2022/11/28 10:22:38;;;;;;;33.33;6.72;;;7.00;99.90;;;;;;5031180;28;20846;-65
2022/11/28 10:25:38;;;;;;;31.95;6.97;;;7.10;99.90;;;;;;5029790;28;20041;-64
2022/11/28 10:28:13;;;;;;;29.75;6.50;;;7.10;99.90;;;;;;5012260;28;20053;-62
2022/11/28 10:30:46;;;;;;;26.48;6.13;;;7.20;99.90;;;;;;5013579;28;20042;-62
2022/11/28 10:33:24;;;;;;;35.65;6.15;;;7.20;99.90;;;;;;5022084;28;20046;-75
2022/11/28 10:35:57;;;;;;;21.10;6.13;;;7.20;99.90;;;;;;5022045;28;20053;-81
2022/11/28 10:38:27;;;;;;;21.70;5.28;;;7.30;99.90;;;;;;5024431;28;20476;-75
2022/11/28 10:40:54;;;;;;;;;;;7.30;99.90;;;;;;5020538;28;20049;-64
2022/11/28 10:43:43;;;;;;;33.25;5.80;;;7.30;99.90;;;;;;5017984;28;19921;-62
2022/11/28 10:46:28;;;;;;;24.27;5.83;;;7.40;99.90;;;;;;5011418;28;20061;-74
2022/11/28 10:48:59;;;;;;;24.58;6.47;;;7.50;99.90;;;;;;5018982;28;20042;-88
2022/11/28 10:51:39;;;;;;;21.52;5.60;;;7.60;99.90;;;;;;5013115;28;20046;-90
2022/11/28 10:54:12;;;;;;;35.92;8.57;;;7.70;99.90;;;;;;5019357;28;20743;-86
2022/11/28 10:57:10;;;;;;;23.63;6.80;;;7.70;99.90;;;;;;5009918;28;20049;-64
2022/11/28 10:59:49;;;;;;;27.55;7.35;;;7.80;99.90;;;;;;5011129;28;20042;-64
2022/11/28 11:02:50;;;;;;;34.90;8.20;;;7.90;99.90;;;;;;5016232;28;20400;-70
2022/11/28 11:05:36;;;;;;;28.85;7.90;;;8.00;99.90;;;;;;4986053;28;20057;-77
2022/11/28 11:08:20;;;;;;;22.73;7.00;;;8.10;99.90;;;;;;5015280;28;20037;-71
2022/11/28 11:10:55;;;;;;;23.98;6.72;;;8.20;99.90;;;;;;5010642;28;20647;-68
2022/11/28 11:13:30;;;;;;;15.20;5.28;;;8.20;99.90;;;;;;5034554;28;20049;-65
2022/11/28 11:15:59;;;;;;;20.15;5.50;;;8.20;99.90;;;;;;5025693;28;20045;-66
2022/11/28 11:18:31;;;;;;;22.30;6.22;;;8.20;99.90;;;;;;5035882;28;20049;-67
2022/11/28 11:21:20;;;;;;;17.15;5.22;;;8.20;99.90;;;;;;5045736;28;20048;-62
2022/11/28 11:23:49;;;;;;;21.95;5.70;;;8.20;99.90;;;;;;5017293;28;20486;-68
2022/11/28 11:26:35;;;;;;;15.90;5.78;;;8.30;99.90;;;;;;5011547;28;20042;-62
2022/11/28 11:29:04;;;;;;;19.02;5.22;;;8.30;99.90;;;;;;5022279;28;20045;-62
2022/11/28 11:31:41;;;;;;;20.40;5.65;;;8.30;99.90;;;;;;5009232;28;20042;-62
2022/11/28 11:34:16;;;;;;;22.95;6.32;;;8.40;99.90;;;;;;5026670;28;20413;-62
2022/11/28 11:36:44;;;;;;;17.13;5.28;;;8.80;99.90;;;;;;5016784;28;20050;-63
2022/11/28 11:39:11;;;;;;;24.77;6.20;;;8.80;99.90;;;;;;5028247;28;20527;-79
2022/11/28 11:41:41;;;;;;;19.15;5.78;;;8.90;99.90;;;;;;5015851;28;20049;-68
2022/11/28 11:44:13;;;;;;;23.30;5.63;;;8.80;99.90;;;;;;5048743;28;20524;-73
2022/11/28 11:46:57;;;;;;;18.17;6.10;;;8.80;99.90;;;;;;5019060;28;20046;-85
2022/11/28 11:49:35;;;;;;;20.00;7.05;;;9.10;99.90;;;;;;5023679;28;20541;-63
2022/11/28 11:52:19;;;;;;;16.23;4.97;;;9.40;99.90;;;;;;5026947;28;20205;-62
2022/11/28 11:55:10;;;;;;;17.05;5.47;;;9.80;99.90;;;;;;5012654;28;20061;-62
2022/11/28 11:57:41;;;;;;;;;;;10.20;99.90;;;;;;5017322;28;20072;-62
2022/11/28 12:00:12;;;;;;;20.92;7.53;;;10.60;99.90;;;;;;5009851;28;19932;-64
2022/11/28 12:03:25;;;;;;;15.48;5.90;;;10.90;99.90;;;;;;5019022;28;20531;-63
2022/11/28 12:05:57;;;;;;;15.00;5.53;;;11.20;99.90;;;;;;4989543;28;20046;-63
2022/11/28 12:09:08;;;;;;;13.98;5.45;;;11.30;99.90;;;;;;5005800;28;20667;-63
2022/11/28 12:11:42;;;;;;;13.70;5.32;;;11.20;99.90;;;;;;5015202;28;20176;-62
2022/11/28 12:14:23;;;;;;;13.95;5.22;;;11.00;99.90;;;;;;5040346;28;20048;-64
2022/11/28 12:17:51;;;;;;;15.85;5.70;;;10.80;99.90;;;;;;5033947;28;20049;-63
2022/11/28 12:20:31;;;;;;;12.82;4.95;;;10.60;99.90;;;;;;5012438;28;20152;-72
2022/11/28 12:23:36;;;;;;;16.35;5.25;;;10.30;99.90;;;;;;5016774;28;20615;-68
2022/11/28 12:26:14;;;;;;;13.80;4.40;;;10.20;99.90;;;;;;5018578;28;20045;-62
2022/11/28 12:28:45;;;;;;;17.95;6.55;;;9.60;99.90;;;;;;5017696;28;20042;-62
2022/11/28 12:31:41;;;;;;;14.93;5.07;;;9.60;99.90;;;;;;5028788;28;20485;-63
2022/11/28 12:34:26;;;;;;;17.40;5.32;;;9.40;99.90;;;;;;5027025;28;20532;-89
2022/11/28 12:36:56;;;;;;;17.40;4.95;;;9.80;99.90;;;;;;5023595;28;20068;-71
2022/11/28 12:39:51;;;;;;;16.23;5.82;;;10.90;99.90;;;;;;5024127;28;20525;-67
2022/11/28 12:43:05;;;;;;;13.02;4.50;;;11.00;99.90;;;;;;5022166;28;20501;-74
2022/11/28 12:45:46;;;;;;;12.15;4.38;;;11.60;99.90;;;;;;5008069;28;20042;-73
2022/11/28 12:48:42;;;;;;;10.63;4.07;;;12.10;99.90;;;;;;5016863;28;20053;-71
2022/11/28 12:51:32;;;;;;;10.07;3.67;;;12.40;99.90;;;;;;5027380;28;20041;-70
2022/11/28 12:54:14;;;;;;;13.80;4.28;;;12.20;99.90;;;;;;5014336;28;20084;-70
2022/11/28 12:57:11;;;;;;;15.13;3.97;;;12.00;99.90;;;;;;5012972;28;20042;-64
2022/11/28 13:00:03;;;;;;;11.25;4.80;;;11.60;99.90;;;;;;5020851;28;20044;-63
2022/11/28 13:02:44;;;;;;;8.85;3.10;;;11.70;99.90;;;;;;5026444;28;20417;-69
2022/11/28 13:05:15;;;;;;;13.85;3.40;;;12.10;99.90;;;;;;5028447;28;20041;-66
2022/11/28 13:07:53;;;;;;;11.57;4.63;;;13.00;99.90;;;;;;5027836;28;20049;-76
2022/11/28 13:10:52;;;;;;;15.63;4.22;;;13.00;99.90;;;;;;5026746;28;20053;-69
2022/11/28 13:13:31;;;;;;;13.38;3.95;;;13.40;99.90;;;;;;5015200;28;20070;-65
2022/11/28 13:16:06;;;;;;;10.85;3.78;;;13.60;99.90;;;;;;5010642;28;20050;-68
2022/11/28 13:19:07;;;;;;;14.80;5.60;;;13.80;99.90;;;;;;5027435;28;20499;-67
2022/11/28 13:22:08;;;;;;;14.57;5.10;;;13.70;99.90;;;;;;5013691;28;20640;-62
2022/11/28 13:25:18;;;;;;;8.82;4.30;;;13.40;99.90;;;;;;5023363;28;20065;-66
2022/11/28 13:28:02;;;;;;;16.60;4.57;;;13.20;99.90;;;;;;5015533;28;20405;-64
2022/11/28 13:30:38;;;;;;;13.95;4.53;;;13.30;99.90;;;;;;5011735;28;20068;-66